createdAt,value
2022-11-15T11:55:09.438Z,25.00
2022-11-15T11:55:24.382Z,25.00
2022-11-15T11:55:39.322Z,25.00
2022-11-15T11:55:54.322Z,25.00
2022-11-15T11:56:09.373Z,25.00
2022-11-15T11:56:24.360Z,25.00
2022-11-15T11:56:39.313Z,25.00
2022-11-15T11:56:54.328Z,25.00
2022-11-15T11:57:09.291Z,25.00
2022-11-15T11:57:24.352Z,25.00
2022-11-15T11:57:39.331Z,25.00
2022-11-15T11:57:54.330Z,25.00
2022-11-15T11:58:09.329Z,25.00
2022-11-15T11:58:24.318Z,25.00
2022-11-15T11:58:39.312Z,25.00
2022-11-15T11:58:54.330Z,25.00
2022-11-15T11:59:09.300Z,25.00
2022-11-15T11:59:24.343Z,25.00
2022-11-15T11:59:39.301Z,25.00
2022-11-15T11:59:54.313Z,25.00
2022-11-15T12:00:09.329Z,25.00
2022-11-15T12:00:24.324Z,9.49
2022-11-15T12:00:39.339Z,0.00
2022-11-15T12:00:54.362Z,0.00
2022-11-15T12:01:12.684Z,0.00
2022-11-15T12:01:24.275Z,0.00
2022-11-15T12:01:39.367Z,0.00
2022-11-15T12:01:54.493Z,0.00
2022-11-15T12:02:09.403Z,0.00
2022-11-15T12:02:24.396Z,0.00
2022-11-15T12:02:39.381Z,0.00
2022-11-15T12:02:54.431Z,0.00
2022-11-15T12:03:09.402Z,0.00
2022-11-15T12:03:24.291Z,0.00
2022-11-15T12:03:39.270Z,0.00
2022-11-15T12:03:54.310Z,0.00
2022-11-15T12:04:09.324Z,0.00
2022-11-15T12:04:24.312Z,0.00
2022-11-15T12:04:39.283Z,0.00
2022-11-15T12:04:54.305Z,0.00
2022-11-15T12:05:09.283Z,0.00
2022-11-15T12:05:24.267Z,0.00
2022-11-15T12:05:39.292Z,0.00
2022-11-15T12:05:54.298Z,0.00
2022-11-15T12:06:09.298Z,0.00
2022-11-15T12:06:24.281Z,0.00
2022-11-15T12:06:39.290Z,0.00
2022-11-15T12:06:54.374Z,0.00
2022-11-15T12:07:09.271Z,0.00
2022-11-15T12:07:24.334Z,0.00
2022-11-15T12:07:39.299Z,0.00
2022-11-15T12:07:54.273Z,0.00
2022-11-15T12:08:09.301Z,0.00
2022-11-15T12:08:24.294Z,0.00
2022-11-15T12:08:39.279Z,0.00
2022-11-15T12:08:54.290Z,0.00
2022-11-15T12:09:09.349Z,0.00
2022-11-15T12:09:24.261Z,0.00
2022-11-15T12:09:39.253Z,0.00
2022-11-15T12:09:54.271Z,0.00
2022-11-15T12:10:09.261Z,0.00
2022-11-15T12:10:24.271Z,0.00
2022-11-15T12:10:39.240Z,0.00
2022-11-15T12:10:54.256Z,0.00
2022-11-15T12:11:09.229Z,0.00
2022-11-15T12:11:24.222Z,0.00
2022-11-15T12:11:39.268Z,0.00
2022-11-15T12:11:54.331Z,0.00
2022-11-15T12:12:09.280Z,0.00
2022-11-15T12:12:24.263Z,0.00
2022-11-15T12:12:39.279Z,0.00
2022-11-15T12:12:54.202Z,0.00
2022-11-15T12:13:09.290Z,0.00
2022-11-15T12:13:24.233Z,0.00
2022-11-15T12:13:39.242Z,0.00
2022-11-15T12:13:54.289Z,0.00
2022-11-15T12:14:09.253Z,0.00
2022-11-15T12:14:24.249Z,0.00
2022-11-15T12:14:39.240Z,0.00
2022-11-15T12:14:54.249Z,0.00
2022-11-15T12:15:09.201Z,0.00
2022-11-15T12:15:24.229Z,0.00
2022-11-15T12:15:39.249Z,0.00
2022-11-15T12:15:54.243Z,0.00
2022-11-15T12:16:10.408Z,0.00
2022-11-15T12:16:24.221Z,0.00
2022-11-15T12:16:39.204Z,0.00
2022-11-15T12:16:54.213Z,0.00
2022-11-15T12:17:09.210Z,0.00
2022-11-15T12:17:24.199Z,0.00
2022-11-15T12:17:39.208Z,0.00
2022-11-15T12:17:54.253Z,0.00
2022-11-15T12:18:09.221Z,0.00
2022-11-15T12:18:24.208Z,0.00
2022-11-15T12:18:39.201Z,0.00
2022-11-15T12:18:54.209Z,0.00
2022-11-15T12:19:09.200Z,0.00
2022-11-15T12:19:24.286Z,0.00
2022-11-15T12:19:39.190Z,0.00
2022-11-15T12:19:54.191Z,0.00
2022-11-15T12:20:09.204Z,0.00
2022-11-15T12:20:24.233Z,0.00
2022-11-15T12:20:39.222Z,0.00
2022-11-15T12:20:54.217Z,0.00
2022-11-15T12:21:09.249Z,0.00
2022-11-15T12:21:28.550Z,0.00
2022-11-15T12:21:40.199Z,0.00
2022-11-15T12:21:54.201Z,0.00
2022-11-15T12:22:09.199Z,0.00
2022-11-15T12:22:24.248Z,0.00
2022-11-15T12:22:39.196Z,0.00
2022-11-15T12:22:54.182Z,0.00
2022-11-15T12:23:09.218Z,0.00
2022-11-15T12:23:24.205Z,0.00
2022-11-15T12:23:39.209Z,0.00
2022-11-15T12:23:54.160Z,0.00
2022-11-15T12:24:09.200Z,0.00
2022-11-15T12:24:24.189Z,0.00
2022-11-15T12:24:39.228Z,0.00
2022-11-15T12:24:54.199Z,0.00
2022-11-15T12:25:09.191Z,0.00
2022-11-15T12:25:24.189Z,0.00
2022-11-15T12:25:39.169Z,0.00
2022-11-15T12:25:54.289Z,0.00
2022-11-15T12:26:10.039Z,0.00
2022-11-15T12:26:24.229Z,0.00
2022-11-15T12:26:39.178Z,0.00
2022-11-15T12:26:54.184Z,0.00
2022-11-15T12:27:09.199Z,0.00
2022-11-15T12:27:26.769Z,0.00
2022-11-15T12:27:39.170Z,0.00
2022-11-15T12:27:54.189Z,0.00
2022-11-15T12:28:09.190Z,0.00
2022-11-15T12:28:24.190Z,0.00
2022-11-15T12:28:52.849Z,0.00
2022-11-15T12:29:06.853Z,0.00
2022-11-15T12:29:10.163Z,0.00
2022-11-15T12:29:24.190Z,0.00
2022-11-15T12:29:39.180Z,0.00
2022-11-15T12:29:54.184Z,0.00
2022-11-15T12:30:09.185Z,0.00
2022-11-15T12:30:24.179Z,0.00
2022-11-15T12:30:39.123Z,0.00
2022-11-15T12:30:54.201Z,0.00
2022-11-15T12:31:09.178Z,0.00
2022-11-15T12:31:24.170Z,0.00
2022-11-15T12:31:39.466Z,0.00
2022-11-15T12:31:54.149Z,0.00
2022-11-15T12:32:09.159Z,0.00
2022-11-15T12:32:24.099Z,0.00
2022-11-15T12:32:39.170Z,0.00
2022-11-15T12:32:54.149Z,0.00
2022-11-15T12:33:09.129Z,0.00
2022-11-15T12:33:24.151Z,0.00
2022-11-15T12:33:39.152Z,0.00
2022-11-15T12:33:54.192Z,0.00
2022-11-15T12:34:09.119Z,0.00
2022-11-15T12:34:24.132Z,0.00
2022-11-15T12:34:39.121Z,0.00
2022-11-15T12:34:54.149Z,0.00
2022-11-15T12:35:09.159Z,0.00
2022-11-15T12:35:24.131Z,0.00
2022-11-15T12:35:39.132Z,0.00
2022-11-15T12:35:54.123Z,0.00
2022-11-15T12:36:09.094Z,0.00
2022-11-15T12:36:24.128Z,0.00
2022-11-15T12:36:39.133Z,0.00
2022-11-15T12:36:54.128Z,0.00
2022-11-15T12:37:09.140Z,0.00
2022-11-15T12:37:24.160Z,0.00
2022-11-15T12:37:39.119Z,0.00
2022-11-15T12:37:54.131Z,0.00
2022-11-15T12:38:09.101Z,0.00
2022-11-15T12:38:24.132Z,0.00
2022-11-15T12:38:39.120Z,0.00
2022-11-15T12:38:54.110Z,0.00
2022-11-15T12:39:09.108Z,0.00
2022-11-15T12:39:24.114Z,0.00
2022-11-15T12:42:02.009Z,25.00
2022-11-15T12:42:17.004Z,25.00
2022-11-15T12:42:32.030Z,25.00
2022-11-15T16:26:34.519Z,25.00
2022-11-15T16:26:49.482Z,25.00
2022-11-15T16:27:04.521Z,25.00
2022-11-15T16:27:19.479Z,25.00
2022-11-15T16:27:34.472Z,25.00
2022-11-15T16:27:49.465Z,25.00
2022-11-15T16:28:04.485Z,25.00
2022-11-15T16:28:19.464Z,25.00
2022-11-15T16:28:34.803Z,25.00
2022-11-15T16:28:49.464Z,25.00
2022-11-15T16:29:04.508Z,25.00
2022-11-15T16:29:19.466Z,25.00
2022-11-15T16:29:34.464Z,25.00
2022-11-15T16:29:49.453Z,25.00
2022-11-15T16:30:04.468Z,25.00
2022-11-15T16:30:19.455Z,25.00
2022-11-15T16:30:34.454Z,25.00
2022-11-15T16:30:53.847Z,25.00
2022-11-15T16:31:05.499Z,25.00
2022-11-15T16:31:19.519Z,25.00
2022-11-15T16:31:34.450Z,25.00
2022-11-15T16:31:49.430Z,25.00
2022-11-15T16:32:04.489Z,25.00
2022-11-15T16:32:19.492Z,25.00
2022-11-15T16:32:34.516Z,25.00
2022-11-15T16:32:49.562Z,25.00
2022-11-15T16:33:04.970Z,25.00
2022-11-15T16:33:19.430Z,25.00
2022-11-15T16:33:34.774Z,25.00
2022-11-15T16:33:49.441Z,25.00
2022-11-15T16:34:04.453Z,25.00
2022-11-15T16:34:19.439Z,25.00
2022-11-15T16:34:39.926Z,25.00
2022-11-15T16:34:50.428Z,25.00
2022-11-15T16:35:04.420Z,25.00
2022-11-15T16:35:19.421Z,25.00
2022-11-15T16:35:34.421Z,25.00
2022-11-15T16:35:49.442Z,25.00
2022-11-15T16:36:04.471Z,25.00
2022-11-15T16:36:19.449Z,25.00
2022-11-15T16:36:34.458Z,25.00
2022-11-15T16:36:49.403Z,25.00
2022-11-15T16:37:04.513Z,25.00
2022-11-15T16:37:19.412Z,25.00
2022-11-15T16:37:34.431Z,25.00
2022-11-15T16:37:49.408Z,25.00
2022-11-15T16:38:04.486Z,25.00
2022-11-15T16:38:19.416Z,25.00
2022-11-15T16:38:34.931Z,25.00
2022-11-15T16:38:49.398Z,25.00
2022-11-15T16:39:04.424Z,25.00
2022-11-15T16:39:19.413Z,25.00
2022-11-15T16:39:34.403Z,25.00
2022-11-15T16:39:49.406Z,25.00
2022-11-15T16:40:04.451Z,25.00
2022-11-15T16:40:19.399Z,25.05
2022-11-15T16:40:34.400Z,25.30
2022-11-15T16:40:49.388Z,25.00
2022-11-15T16:41:04.412Z,25.00
2022-11-15T16:41:19.392Z,25.00
2022-11-15T16:41:34.403Z,25.36
2022-11-15T16:41:49.384Z,25.00
2022-11-15T16:42:04.425Z,25.00
2022-11-15T16:42:19.380Z,25.96
2022-11-15T16:42:34.379Z,25.35
2022-11-15T16:42:49.381Z,25.00
2022-11-15T16:43:04.400Z,25.07
2022-11-15T16:43:19.376Z,25.00
2022-11-15T16:43:34.383Z,26.47
2022-11-15T16:43:49.379Z,25.22
2022-11-15T16:44:04.401Z,25.00
2022-11-15T16:44:19.374Z,25.00
2022-11-15T16:44:34.370Z,25.00
2022-11-15T16:44:49.374Z,25.25
2022-11-15T16:45:04.400Z,25.21
2022-11-15T16:45:19.364Z,25.00
2022-11-15T16:45:34.365Z,28.86
2022-11-15T16:45:49.368Z,25.00
2022-11-15T16:46:04.398Z,27.45
2022-11-15T16:46:19.354Z,37.70
2022-11-15T16:46:34.365Z,38.24
2022-11-15T16:46:49.353Z,40.69
2022-11-15T16:47:04.375Z,38.89
2022-11-15T16:47:19.349Z,37.12
2022-11-15T16:47:34.344Z,39.03
2022-11-15T16:47:49.347Z,36.97
2022-11-15T16:48:04.358Z,37.22
2022-11-15T16:48:19.339Z,36.04
2022-11-15T16:48:34.744Z,35.36
2022-11-15T16:48:49.343Z,35.35
2022-11-15T16:49:04.354Z,35.77
2022-11-15T16:49:19.337Z,34.20
2022-11-15T16:49:34.342Z,34.50
2022-11-15T16:49:49.342Z,33.48
2022-11-15T16:50:04.402Z,34.14
2022-11-15T16:50:19.333Z,32.90
2022-11-15T16:50:34.329Z,30.87
2022-11-15T16:50:49.328Z,30.68
2022-11-15T16:51:04.436Z,29.47
2022-11-15T16:51:19.338Z,30.03
2022-11-15T16:51:34.340Z,29.56
2022-11-15T16:51:49.320Z,29.37
2022-11-15T16:52:04.341Z,27.69
2022-11-15T16:52:21.579Z,29.43
2022-11-15T16:52:34.356Z,32.78
2022-11-15T16:52:49.320Z,29.88
2022-11-15T16:53:04.967Z,28.31
2022-11-15T16:53:19.312Z,26.71
2022-11-15T16:53:34.309Z,27.36
2022-11-15T16:53:49.309Z,26.92
2022-11-15T16:54:04.377Z,27.07
2022-11-15T16:54:19.311Z,25.87
2022-11-15T16:54:34.316Z,25.25
2022-11-15T16:54:49.305Z,25.08
2022-11-15T16:55:04.503Z,25.00
2022-11-15T16:55:19.316Z,25.77
2022-11-15T16:55:34.327Z,26.26
2022-11-15T16:55:49.304Z,25.87
2022-11-15T16:56:04.352Z,25.59
2022-11-15T16:56:19.315Z,25.00
2022-11-15T16:56:34.310Z,25.70
2022-11-15T16:56:49.300Z,27.01
2022-11-15T16:57:04.974Z,25.40
2022-11-15T16:57:19.291Z,25.00
2022-11-15T16:57:34.286Z,25.09
2022-11-15T16:57:49.298Z,25.00
2022-11-15T16:58:04.297Z,26.29
2022-11-15T16:58:19.287Z,26.29
2022-11-15T16:58:34.597Z,27.30
2022-11-15T16:58:49.289Z,26.55
2022-11-15T16:59:04.289Z,25.26
2022-11-15T16:59:19.293Z,27.67
2022-11-15T16:59:38.116Z,25.97
2022-11-15T16:59:49.278Z,25.99
2022-11-15T17:00:04.461Z,26.03
2022-11-15T17:00:19.279Z,26.05
2022-11-15T17:00:34.321Z,26.10
2022-11-15T17:00:49.343Z,26.16
2022-11-15T17:01:04.988Z,26.22
2022-11-15T17:01:19.328Z,26.31
2022-11-15T17:01:34.306Z,26.11
2022-11-15T17:01:49.267Z,26.08
2022-11-15T17:02:04.450Z,24.88
2022-11-15T17:02:19.292Z,24.21
2022-11-15T17:02:34.257Z,23.60
2022-11-15T17:02:49.260Z,23.84
2022-11-15T17:03:04.283Z,23.45
2022-11-15T17:03:19.261Z,24.16
2022-11-15T17:03:34.251Z,24.84
2022-11-15T17:03:49.282Z,23.83
2022-11-15T17:04:04.292Z,25.18
2022-11-15T17:04:19.260Z,23.63
2022-11-15T17:04:34.248Z,25.70
2022-11-15T20:02:16.134Z,25.00
2022-11-15T20:02:30.979Z,25.00
2022-11-15T20:03:08.932Z,25.00
2022-11-15T20:03:23.940Z,25.00
2022-11-15T20:03:38.950Z,25.00
2022-11-15T20:03:53.924Z,25.00
2022-11-15T20:04:08.935Z,25.00
2022-11-15T20:04:23.949Z,25.00
2022-11-15T20:04:38.946Z,25.00
2022-11-15T20:04:53.940Z,25.00
2022-11-15T20:05:10.285Z,25.00
2022-11-15T20:05:23.941Z,25.00
2022-11-15T20:05:38.945Z,25.00
2022-11-15T20:05:53.946Z,25.00
2022-11-15T20:06:09.088Z,25.00
2022-11-15T20:06:23.944Z,25.00
2022-11-15T20:06:39.321Z,25.00
2022-11-15T20:06:54.209Z,25.00
2022-11-15T20:07:08.954Z,25.00
2022-11-15T20:07:24.102Z,25.00
2022-11-15T20:07:39.428Z,25.00
2022-11-15T20:07:54.092Z,25.00
2022-11-15T20:08:08.926Z,25.00
2022-11-15T20:08:24.893Z,25.00
2022-11-15T20:08:39.087Z,25.00
2022-11-15T20:08:54.061Z,25.00
2022-11-15T20:09:09.413Z,25.00
2022-11-15T20:09:24.059Z,25.00
2022-11-15T20:09:38.912Z,25.00
2022-11-15T20:09:54.119Z,25.00
2022-11-15T20:10:09.169Z,25.00
2022-11-15T20:10:24.028Z,25.00
2022-11-15T20:10:39.194Z,25.00
2022-11-15T20:10:53.912Z,25.00
2022-11-15T20:11:08.954Z,25.00
2022-11-15T20:11:24.073Z,25.00
2022-11-15T20:11:40.000Z,25.00
2022-11-15T20:11:53.913Z,25.00
2022-11-15T20:12:08.934Z,25.00
2022-11-15T20:12:23.881Z,24.96
2022-11-15T20:12:38.959Z,22.31
2022-11-15T20:12:53.938Z,25.00
2022-11-15T20:13:09.143Z,25.00
2022-11-15T20:13:23.901Z,24.87
2022-11-15T20:13:38.947Z,25.00
2022-11-15T20:13:53.902Z,25.00
2022-11-15T20:14:08.879Z,24.35
2022-11-15T20:14:23.874Z,25.00
2022-11-15T20:14:38.865Z,25.00
2022-11-15T20:14:53.878Z,25.00
2022-11-15T20:15:08.965Z,25.00
2022-11-15T20:15:23.862Z,25.49
2022-11-15T20:15:38.967Z,26.05
2022-11-15T20:15:53.860Z,25.16
2022-11-15T20:16:08.844Z,25.00
2022-11-15T20:16:23.875Z,25.14
2022-11-15T20:16:38.917Z,25.00
2022-11-15T20:16:54.599Z,25.00
2022-11-15T20:17:08.875Z,24.69
2022-11-15T20:17:23.847Z,26.04
2022-11-15T20:17:38.857Z,26.61
2022-11-15T20:17:53.877Z,25.00
2022-11-15T20:18:08.908Z,26.12
2022-11-15T20:18:23.838Z,25.00
2022-11-15T20:18:39.074Z,25.14
2022-11-15T20:18:53.861Z,25.00
2022-11-15T20:19:09.030Z,25.52
2022-11-15T20:19:23.843Z,25.34
2022-11-15T20:19:38.891Z,25.60
2022-11-15T20:19:53.874Z,25.16
2022-11-15T20:20:08.923Z,25.00
2022-11-15T20:20:23.898Z,26.70
2022-11-15T20:20:38.931Z,25.00
2022-11-15T20:20:54.508Z,25.07
2022-11-15T20:21:08.867Z,25.00
2022-11-15T20:21:23.886Z,27.03
2022-11-15T20:21:38.820Z,27.56
2022-11-15T20:21:53.859Z,26.29
2022-11-15T20:22:08.942Z,26.15
2022-11-15T20:22:23.815Z,30.31
2022-11-15T20:22:38.807Z,28.54
2022-11-15T20:22:53.809Z,27.41
2022-11-15T20:23:08.830Z,25.00
2022-11-15T20:23:23.842Z,27.46
2022-11-15T20:23:38.826Z,25.00
2022-11-15T20:23:53.825Z,26.81
2022-11-15T20:24:09.004Z,25.41
2022-11-15T20:24:23.807Z,25.00
2022-11-15T20:24:38.915Z,25.00
2022-11-15T20:24:53.815Z,28.51
2022-11-15T20:25:08.886Z,28.10
2022-11-15T20:25:23.829Z,28.12
2022-11-15T20:25:38.897Z,25.52
2022-11-15T20:25:53.820Z,25.00
2022-11-15T20:26:08.825Z,28.37
2022-11-15T20:26:23.801Z,29.50
2022-11-15T20:26:38.866Z,27.17
2022-11-15T20:26:53.879Z,26.62
2022-11-15T20:27:08.792Z,25.27
2022-11-15T20:27:23.805Z,26.87
2022-11-15T20:27:38.808Z,29.31
2022-11-15T20:27:53.816Z,26.67
2022-11-15T20:28:08.792Z,25.00
2022-11-15T20:28:23.782Z,26.48
2022-11-15T20:28:38.785Z,25.00
2022-11-15T20:28:53.876Z,25.81
2022-11-15T20:29:08.779Z,27.62
2022-11-15T20:29:23.805Z,25.94
2022-11-15T20:29:42.356Z,26.48
2022-11-15T20:29:54.860Z,26.52
2022-11-15T20:30:08.923Z,26.58
2022-11-15T20:30:23.781Z,26.54
2022-11-15T20:30:38.777Z,26.42
2022-11-15T20:30:53.812Z,26.24
2022-11-15T20:31:08.773Z,25.71
2022-11-15T20:31:23.765Z,25.58
2022-11-15T20:31:38.790Z,21.99
2022-11-15T20:31:53.761Z,25.79
2022-11-15T20:32:08.756Z,22.33
2022-11-15T20:32:23.762Z,21.86
2022-11-15T20:32:38.784Z,21.67
2022-11-15T20:32:53.765Z,23.36
2022-11-15T20:33:08.807Z,20.55
2022-11-15T20:33:23.755Z,21.58
2022-11-15T20:33:38.771Z,19.36
2022-11-15T20:33:53.766Z,19.38
2022-11-15T20:34:08.770Z,18.22
2022-11-15T20:34:23.761Z,19.67
2022-11-15T20:34:38.902Z,16.59
2022-11-15T20:34:54.226Z,22.40
2022-11-15T20:35:08.760Z,25.00
2022-11-15T20:35:23.751Z,27.11
2022-11-15T20:35:38.752Z,27.04
2022-11-15T20:35:53.770Z,25.96
2022-11-15T20:36:08.794Z,28.63
2022-11-15T20:36:23.742Z,25.94
2022-11-15T20:36:38.777Z,27.49
2022-11-15T20:36:53.732Z,28.16
2022-11-15T20:37:08.771Z,26.79
2022-11-15T20:37:23.734Z,27.60
2022-11-15T20:37:38.763Z,29.43
2022-11-15T20:37:53.753Z,28.35
2022-11-15T20:38:08.730Z,28.71
2022-11-15T20:38:23.742Z,29.16
2022-11-15T20:38:38.757Z,26.40
2022-11-15T20:38:53.769Z,28.21
2022-11-15T20:39:08.737Z,26.63
2022-11-15T20:39:23.733Z,26.15
2022-11-15T20:39:38.757Z,27.09
2022-11-15T20:39:53.723Z,27.72
2022-11-15T20:40:08.761Z,25.84
2022-11-15T20:40:23.727Z,27.02
2022-11-15T20:40:38.778Z,25.58
2022-11-15T20:40:57.550Z,27.86
2022-11-15T20:41:09.721Z,27.89
2022-11-15T20:41:23.767Z,27.94
2022-11-15T20:41:38.721Z,27.92
2022-11-15T20:41:53.731Z,27.92
2022-11-15T20:42:08.771Z,27.89
2022-11-15T20:42:23.785Z,27.02
2022-11-15T20:42:38.731Z,23.73
2022-11-15T20:42:53.726Z,24.35
2022-11-15T20:43:08.741Z,24.92
2022-11-15T20:43:23.705Z,23.08
2022-11-15T20:43:38.702Z,25.17
2022-11-15T20:43:53.705Z,23.96
2022-11-15T20:44:08.721Z,24.00
2022-11-15T20:44:23.696Z,23.76
2022-11-15T20:44:38.710Z,22.98
2022-11-15T20:44:53.697Z,22.34
2022-11-15T20:45:08.692Z,23.25
2022-11-15T20:45:23.694Z,24.05
2022-11-15T20:45:38.697Z,24.16
2022-11-15T20:45:53.685Z,25.26
2022-11-15T20:46:08.707Z,26.99
2022-11-15T20:46:23.686Z,25.21
2022-11-15T20:46:38.687Z,25.00
2022-11-15T20:46:53.803Z,25.63
2022-11-15T20:47:08.686Z,27.88
2022-11-15T20:47:29.011Z,29.40
2022-11-15T20:47:39.691Z,29.43
2022-11-15T20:47:53.687Z,29.51
2022-11-15T20:48:08.708Z,29.49
2022-11-15T20:48:23.741Z,29.41
2022-11-15T20:48:38.712Z,27.82
2022-11-15T20:48:53.688Z,27.72
2022-11-15T20:49:08.689Z,29.48
2022-11-15T20:49:23.670Z,29.49
2022-11-15T20:49:38.686Z,26.51
2022-11-15T20:49:53.679Z,25.21
2022-11-15T20:50:35.445Z,26.56
2022-11-15T20:50:41.474Z,29.43
2022-11-15T20:50:43.600Z,29.43
2022-11-15T20:50:53.667Z,29.49
2022-11-15T20:51:08.675Z,29.67
2022-11-15T20:51:23.681Z,29.70
2022-11-15T20:51:38.668Z,29.67
2022-11-15T20:51:53.678Z,29.71
2022-11-15T20:52:08.644Z,29.55
2022-11-15T20:52:23.646Z,29.44
2022-11-15T20:52:38.654Z,27.17
2022-11-15T20:52:53.654Z,29.50
2022-11-15T20:53:08.678Z,27.33
2022-11-15T20:53:24.327Z,26.72
2022-11-15T20:53:38.722Z,33.57
2022-11-15T20:53:53.654Z,28.03
2022-11-15T20:54:08.675Z,26.73
2022-11-15T20:54:23.681Z,27.11
2022-11-15T20:54:38.663Z,23.80
2022-11-15T20:54:53.649Z,24.18
2022-11-15T20:55:08.662Z,22.83
2022-11-15T20:55:23.632Z,22.26
2022-11-15T20:55:38.646Z,25.20
2022-11-15T20:55:53.640Z,25.23
2022-11-15T20:56:08.631Z,25.00
2022-11-15T20:56:23.666Z,26.26
2022-11-15T20:56:38.631Z,25.50
2022-11-15T20:56:53.631Z,26.16
2022-11-15T20:57:08.633Z,27.71
2022-11-15T20:57:23.638Z,28.29
2022-11-15T20:57:38.632Z,29.55
2022-11-15T20:57:53.626Z,28.56
2022-11-15T20:58:08.622Z,28.18
2022-11-15T20:58:23.631Z,27.62
2022-11-15T20:58:38.637Z,28.98
2022-11-15T20:58:53.630Z,25.58
2022-11-15T20:59:08.660Z,25.78
2022-11-15T20:59:23.614Z,26.59
2022-11-15T20:59:38.690Z,26.58
2022-11-15T20:59:53.861Z,27.24
2022-11-15T21:00:08.629Z,26.46
2022-11-15T21:00:23.627Z,28.73
2022-11-15T21:00:38.736Z,28.05
2022-11-15T21:00:53.728Z,27.48
2022-11-15T21:01:08.727Z,29.73
2022-11-15T21:01:24.142Z,28.58
2022-11-15T21:01:38.695Z,29.87
2022-11-15T21:01:53.683Z,31.66
2022-11-15T21:02:08.709Z,32.54
2022-11-15T21:02:23.760Z,28.76
2022-11-15T21:02:38.606Z,29.86
2022-11-15T21:02:53.601Z,27.15
2022-11-15T21:03:08.593Z,26.55
2022-11-15T21:03:23.591Z,27.92
2022-11-15T21:03:38.601Z,27.33
2022-11-15T21:03:53.609Z,29.84
2022-11-15T21:04:08.600Z,28.67
2022-11-15T21:04:23.587Z,28.20
2022-11-15T21:04:38.579Z,26.58
2022-11-15T21:04:53.629Z,27.49
2022-11-15T21:05:08.620Z,29.64
2022-11-15T21:05:23.587Z,28.71
2022-11-15T21:05:38.572Z,32.07
2022-11-15T21:05:53.573Z,26.96
2022-11-15T21:06:08.576Z,28.82
2022-11-15T21:06:23.558Z,32.81
2022-11-15T21:06:38.581Z,32.74
2022-11-15T21:06:53.643Z,32.97
2022-11-15T21:07:08.655Z,31.24
2022-11-15T21:07:23.628Z,29.16
2022-11-15T21:07:38.700Z,28.77
2022-11-15T21:07:53.582Z,30.70
2022-11-15T21:08:08.559Z,30.69
2022-11-15T21:08:23.569Z,29.77
2022-11-15T21:08:38.559Z,28.98
2022-11-15T21:08:53.581Z,29.54
2022-11-15T21:09:08.574Z,29.48
2022-11-15T21:09:23.558Z,29.43
2022-11-15T21:09:38.598Z,30.00
2022-11-15T21:09:53.554Z,26.81
2022-11-15T21:10:08.589Z,32.05
2022-11-15T21:10:23.539Z,28.72
2022-11-15T21:10:38.543Z,26.56
2022-11-15T21:10:53.561Z,26.27
2022-11-15T21:11:08.566Z,29.83
2022-11-15T21:11:23.583Z,27.84
2022-11-15T21:11:38.574Z,27.89
2022-11-15T21:11:53.574Z,28.01
2022-11-15T21:12:08.569Z,28.06
2022-11-15T21:12:23.540Z,28.07
2022-11-15T21:12:38.543Z,28.07
2022-11-15T21:12:53.540Z,27.97
2022-11-15T21:13:08.544Z,28.18
2022-11-15T21:13:23.539Z,28.05
2022-11-15T21:13:38.550Z,28.16
2022-11-15T21:13:53.549Z,28.34
2022-11-15T21:14:09.828Z,28.66
2022-11-15T21:14:23.530Z,27.43
2022-11-15T21:14:38.526Z,28.27
2022-11-15T21:14:53.534Z,27.40
2022-11-15T21:15:08.530Z,28.65
2022-11-15T21:15:23.585Z,30.73
2022-11-15T21:15:38.529Z,30.93
2022-11-15T21:15:53.515Z,30.06
2022-11-15T21:16:08.535Z,30.44
2022-11-15T21:16:23.515Z,29.89
2022-11-15T21:16:38.514Z,29.23
2022-11-15T21:16:53.527Z,27.59
2022-11-15T21:17:08.592Z,28.79
2022-11-15T21:17:23.514Z,31.59
2022-11-15T21:17:38.532Z,29.07
2022-11-15T21:17:53.514Z,32.26
2022-11-15T21:18:08.499Z,32.25
2022-11-15T21:18:23.504Z,29.90
2022-11-15T21:18:38.494Z,30.79
2022-11-15T21:18:53.571Z,29.94
2022-11-15T21:19:08.514Z,29.05
2022-11-15T21:19:28.089Z,30.14
2022-11-15T21:19:39.494Z,30.18
2022-11-15T21:19:53.577Z,30.26
2022-11-15T21:20:08.686Z,30.27
2022-11-15T21:20:23.535Z,30.21
2022-11-15T21:20:38.538Z,30.24
2022-11-15T21:20:53.495Z,30.21
2022-11-15T21:21:08.496Z,30.21
2022-11-15T21:21:23.495Z,30.35
2022-11-15T21:21:38.483Z,29.99
2022-11-15T21:21:53.500Z,28.16
2022-11-15T21:22:08.490Z,30.12
2022-11-15T21:22:23.525Z,28.22
2022-11-15T21:22:38.478Z,26.77
2022-11-15T21:22:53.479Z,28.87
2022-11-15T21:23:08.491Z,30.01
2022-11-15T21:23:23.474Z,29.44
2022-11-15T21:23:38.472Z,31.16
2022-11-15T21:23:53.475Z,30.65
2022-11-15T21:24:08.465Z,28.51
2022-11-15T21:24:23.471Z,28.23
2022-11-15T21:24:38.473Z,26.04
2022-11-15T21:24:53.467Z,29.12
2022-11-15T21:25:08.477Z,28.70
2022-11-15T21:25:23.459Z,26.00
2022-11-15T21:25:38.459Z,29.02
2022-11-15T21:25:53.475Z,27.54
2022-11-15T21:26:08.498Z,27.85
2022-11-15T21:26:23.464Z,29.04
2022-11-15T21:26:38.456Z,31.80
2022-11-15T21:26:53.468Z,27.98
2022-11-15T21:27:08.479Z,30.17
2022-11-15T21:27:23.456Z,30.59
2022-11-15T21:27:38.477Z,29.64
2022-11-15T21:27:53.539Z,28.57
2022-11-15T21:28:08.514Z,29.37
2022-11-15T21:28:23.492Z,28.60
2022-11-15T21:28:38.449Z,30.84
2022-11-15T21:28:53.448Z,27.27
2022-11-15T21:29:08.446Z,27.90
2022-11-15T21:29:23.440Z,28.75
2022-11-15T21:29:38.448Z,29.68
2022-11-15T21:29:53.448Z,28.09
2022-11-15T21:30:08.444Z,31.61
2022-11-15T21:30:23.441Z,32.74
2022-11-15T21:30:38.447Z,31.40
2022-11-15T21:30:53.430Z,31.80
2022-11-15T21:31:08.458Z,30.37
2022-11-15T21:31:23.424Z,30.11
2022-11-15T21:31:38.429Z,30.03
2022-11-15T21:31:53.429Z,33.20
2022-11-15T21:32:08.439Z,28.33
2022-11-15T21:32:23.437Z,31.07
2022-11-15T21:32:38.420Z,31.07
2022-11-15T21:32:53.433Z,30.48
2022-11-15T21:33:08.418Z,33.91
2022-11-15T21:33:23.420Z,32.13
2022-11-15T21:33:38.477Z,33.07
2022-11-15T21:33:53.419Z,31.80
2022-11-15T21:34:08.424Z,31.35
2022-11-15T21:34:23.449Z,31.11
2022-11-15T21:34:38.425Z,30.26
2022-11-15T21:34:53.444Z,29.97
2022-11-15T21:35:08.404Z,31.71
2022-11-15T21:35:23.410Z,31.90
2022-11-15T21:35:38.433Z,30.38
2022-11-15T21:35:53.404Z,28.76
2022-11-15T21:36:08.403Z,29.57
2022-11-15T21:36:23.404Z,30.74
2022-11-15T21:36:38.395Z,31.88
2022-11-15T21:36:53.389Z,30.79
2022-11-15T21:37:08.397Z,32.65
2022-11-15T21:37:23.409Z,32.73
2022-11-15T21:37:38.393Z,33.90
2022-11-15T21:37:56.738Z,32.31
2022-11-15T21:38:08.397Z,32.33
2022-11-15T21:38:23.395Z,32.38
2022-11-15T21:38:38.384Z,32.38
2022-11-15T21:38:53.388Z,31.90
2022-11-15T21:39:08.386Z,30.93
2022-11-15T21:39:23.435Z,32.64
2022-11-15T21:39:38.390Z,32.01
2022-11-15T21:39:53.379Z,32.45
2022-11-15T21:40:08.379Z,30.55
2022-11-15T21:40:23.375Z,32.45
2022-11-15T21:40:38.369Z,32.41
2022-11-15T21:40:53.395Z,32.48
2022-11-15T21:41:08.375Z,32.91
2022-11-15T21:41:23.368Z,33.53
2022-11-15T21:41:38.374Z,34.24
2022-11-15T21:41:53.368Z,34.17
2022-11-15T21:42:08.378Z,31.41
2022-11-15T21:42:23.376Z,33.25
2022-11-15T21:42:38.453Z,33.08
2022-11-15T21:42:53.383Z,34.31
2022-11-15T21:43:08.378Z,35.85
2022-11-15T21:43:23.406Z,34.74
2022-11-15T21:43:38.393Z,34.39
2022-11-15T21:43:53.373Z,31.38
2022-11-15T21:44:08.378Z,33.06
2022-11-15T21:44:23.384Z,34.33
2022-11-15T21:44:38.403Z,32.14
2022-11-15T21:44:53.439Z,32.03
2022-11-15T21:45:08.369Z,30.88
2022-11-15T21:45:23.389Z,34.14
2022-11-15T21:45:38.392Z,31.95
2022-11-15T21:45:53.354Z,35.05
2022-11-15T21:46:08.357Z,35.57
2022-11-15T21:46:23.362Z,34.24
2022-11-15T21:46:39.132Z,33.93
2022-11-15T21:46:53.361Z,37.19
2022-11-15T21:47:08.364Z,36.31
2022-11-15T21:47:23.376Z,35.05
2022-11-15T21:47:41.971Z,34.92
2022-11-15T21:47:54.347Z,34.97
2022-11-15T21:48:08.345Z,35.07
2022-11-15T21:48:23.347Z,35.07
2022-11-15T21:48:38.347Z,35.15
2022-11-15T21:48:53.342Z,34.99
2022-11-15T21:49:08.359Z,35.08
2022-11-15T21:49:23.337Z,35.39
2022-11-15T21:49:38.348Z,35.05
2022-11-15T21:49:53.379Z,35.23
2022-11-15T21:50:08.464Z,35.26
2022-11-15T21:50:23.328Z,35.50
2022-11-15T21:50:38.403Z,35.50
2022-11-15T21:50:53.349Z,36.07
2022-11-15T21:51:08.340Z,35.32
2022-11-15T21:51:23.368Z,35.93
2022-11-15T21:51:38.351Z,35.13
2022-11-15T21:51:53.348Z,35.74
2022-11-15T21:52:08.328Z,34.63
2022-11-15T21:52:23.343Z,33.59
2022-11-15T21:52:38.327Z,37.14
2022-11-15T21:52:53.338Z,35.02
2022-11-15T21:53:08.323Z,32.84
2022-11-15T21:53:23.313Z,36.89